Terminal Aerodrome Forecast
Issued by NWS Grand Forks, ND

Home | Current Version | Previous Version | Text Only | Print | Product List | Glossary On
Versions: 1 2 3 4 5 6 7 8 9 10 11 12 13 14 15 16 17 18 19 20 21
000
FTUS43 KFGF 230300 AAA
TAFGFK
TAF AMD
KGFK 230300Z 2303/2324 15008KT P6SM BKN100
     FM230400 17010KT 5SM BR BKN008
      TEMPO 2304/2308 2SM BR BKN004
     FM231400 22010KT P6SM BKN090
     FM232000 32015G22KT P6SM BKN015=

USA.gov is the U.S. government's official web portal to all federal, state and local government web resources and services.